createdAt,value
2022-12-15T00:02:22.811Z,100137.64
2022-12-15T00:05:12.810Z,100139.44
2022-12-15T00:08:02.475Z,100134.73
2022-12-15T00:10:52.048Z,100132.56
2022-12-15T00:13:41.555Z,100128.80
2022-12-15T00:16:31.251Z,100124.90
2022-12-15T00:19:20.850Z,100123.67
2022-12-15T00:22:10.498Z,100126.52
2022-12-15T00:25:00.156Z,100125.89
2022-12-15T00:27:49.973Z,100125.02
2022-12-15T00:30:39.604Z,100118.23
2022-12-15T00:33:30.849Z,100118.26
2022-12-15T00:36:21.040Z,100121.39
2022-12-15T00:38:53.190Z,100117.99
2022-12-15T00:41:25.328Z,100124.80
2022-12-15T00:43:57.499Z,100126.32
2022-12-15T00:46:47.100Z,100126.55
2022-12-15T00:49:36.881Z,100124.45
2022-12-15T00:52:27.146Z,100126.20
2022-12-15T00:55:17.741Z,100120.23
2022-12-15T00:58:07.583Z,100124.14
2022-12-15T01:00:57.238Z,100126.48
2022-12-15T01:03:46.742Z,100121.52
2022-12-15T01:06:39.469Z,100125.91
2022-12-15T01:09:31.833Z,100124.98
2022-12-15T01:12:21.515Z,100121.07
2022-12-15T01:15:10.991Z,100114.02
2022-12-15T01:18:00.710Z,100102.48
2022-12-15T01:20:34.745Z,100106.10
2022-12-15T01:23:07.169Z,100105.59
2022-12-15T01:25:41.092Z,100107.09
2022-12-15T01:28:13.222Z,100100.48
2022-12-15T01:30:45.447Z,100100.34
2022-12-15T01:33:18.707Z,100101.13
2022-12-15T01:36:00.358Z,100090.47
2022-12-15T01:38:32.865Z,100075.01
2022-12-15T01:41:06.877Z,100071.02
2022-12-15T01:43:41.007Z,100071.37
2022-12-15T01:46:15.240Z,100074.41
2022-12-15T01:48:50.646Z,100078.30
2022-12-15T01:51:33.477Z,100083.88
2022-12-15T01:54:09.502Z,100080.98
2022-12-15T01:56:46.898Z,100077.22
2022-12-15T01:59:25.111Z,100070.02
2022-12-15T02:01:57.512Z,100066.43
2022-12-15T02:04:30.130Z,100057.34
2022-12-15T02:07:02.262Z,100059.45
2022-12-15T02:09:34.758Z,100051.83
2022-12-15T02:12:16.981Z,100048.33
2022-12-15T02:15:00.243Z,100054.34
2022-12-15T02:17:40.524Z,100058.04
2022-12-15T02:20:36.304Z,100059.63
2022-12-15T02:23:32.531Z,100051.64
2022-12-15T02:26:28.799Z,100056.98
2022-12-15T02:29:13.333Z,100050.03
2022-12-15T02:31:51.721Z,100032.52
2022-12-15T02:34:34.016Z,100025.33
2022-12-15T02:37:11.967Z,100030.52
2022-12-15T02:39:44.429Z,100033.65
2022-12-15T02:42:16.834Z,100032.22
2022-12-15T02:44:53.488Z,100030.27
2022-12-15T02:47:34.106Z,100026.52
2022-12-15T02:50:35.121Z,100015.88
2022-12-15T02:53:20.769Z,100021.36
2022-12-15T02:56:02.987Z,100016.42
2022-12-15T02:58:42.800Z,100008.59
2022-12-15T03:01:20.036Z,100006.33
2022-12-15T03:03:53.154Z,100008.35
2022-12-15T03:06:28.005Z,100012.48
2022-12-15T03:09:00.177Z,100014.16
2022-12-15T03:11:32.583Z,100019.58
2022-12-15T03:14:05.032Z,100022.73
2022-12-15T03:16:37.252Z,100021.27
2022-12-15T03:19:09.471Z,100022.89
2022-12-15T03:21:41.624Z,100020.75
2022-12-15T03:24:14.040Z,100018.33
2022-12-15T03:26:50.026Z,100017.55
2022-12-15T03:29:22.484Z,100016.61
2022-12-15T03:31:54.780Z,100018.40
2022-12-15T03:34:27.214Z,100016.23
2022-12-15T03:36:59.787Z,100009.30
2022-12-15T03:39:32.052Z,100014.36
2022-12-15T03:42:04.328Z,100014.21
2022-12-15T03:44:36.517Z,100007.66
2022-12-15T03:47:08.757Z,100004.67
2022-12-15T03:49:40.973Z,100004.50
2022-12-15T03:52:13.196Z,100007.47
2022-12-15T03:54:45.341Z,100000.13
2022-12-15T03:57:17.467Z,99998.36
2022-12-15T03:59:49.694Z,99986.26
2022-12-15T04:02:22.573Z,99988.16
2022-12-15T04:04:55.085Z,99989.08
2022-12-15T04:07:27.248Z,99988.06
2022-12-15T04:09:59.382Z,99989.74
2022-12-15T04:12:31.603Z,99992.64
2022-12-15T04:15:03.794Z,99997.10
2022-12-15T04:17:36.189Z,99999.63
2022-12-15T04:20:10.831Z,100002.84
2022-12-15T04:22:45.180Z,100004.80
2022-12-15T04:25:37.374Z,100010.36
2022-12-15T04:28:27.591Z,100010.98
2022-12-15T04:31:21.315Z,100009.93
2022-12-15T04:34:14.252Z,100002.39
2022-12-15T04:37:07.977Z,100005.42
2022-12-15T04:39:59.791Z,100009.88
2022-12-15T04:42:51.706Z,100006.95
2022-12-15T04:45:43.807Z,100005.70
2022-12-15T04:48:34.125Z,100005.98
2022-12-15T04:51:24.179Z,100013.88
2022-12-15T04:54:13.797Z,100015.97
2022-12-15T04:57:04.024Z,100020.70
2022-12-15T04:59:53.614Z,100024.91
2022-12-15T05:02:43.157Z,100026.70
2022-12-15T05:05:33.195Z,100030.58
2022-12-15T05:08:22.707Z,100029.67
2022-12-15T05:11:12.609Z,100025.88
2022-12-15T05:14:02.252Z,100033.08
2022-12-15T05:16:51.742Z,100034.50
2022-12-15T05:19:41.564Z,100034.60
2022-12-15T05:22:31.275Z,100039.33
2022-12-15T05:25:20.838Z,100032.75
2022-12-15T05:28:10.335Z,100036.52
2022-12-15T05:31:00.226Z,100037.36
2022-12-15T05:33:32.690Z,100037.84
2022-12-15T05:36:06.054Z,100036.73
2022-12-15T05:38:38.288Z,100043.88
2022-12-15T05:41:10.435Z,100049.41
2022-12-15T05:43:42.613Z,100050.00
2022-12-15T05:46:15.866Z,100058.27
2022-12-15T05:48:48.356Z,100060.36
2022-12-15T05:51:20.514Z,100072.78
2022-12-15T05:53:52.678Z,100071.20
2022-12-15T05:56:26.178Z,100073.73
2022-12-15T05:58:58.836Z,100075.16
2022-12-15T06:01:32.142Z,100075.92
2022-12-15T06:04:04.718Z,100076.56
2022-12-15T06:06:37.071Z,100077.96
2022-12-15T06:09:09.464Z,100085.71
2022-12-15T06:11:41.884Z,100092.09
2022-12-15T06:14:14.074Z,100092.26
2022-12-15T06:16:49.968Z,100095.30
2022-12-15T06:19:24.155Z,100095.30
2022-12-15T06:21:56.304Z,100095.20
2022-12-15T06:24:28.721Z,100098.36
2022-12-15T06:27:00.866Z,100097.83
2022-12-15T06:29:33.354Z,100105.02
2022-12-15T06:32:05.998Z,100111.77
2022-12-15T06:34:38.307Z,100105.14
2022-12-15T06:37:10.450Z,100119.07
2022-12-15T06:39:42.817Z,100130.80
2022-12-15T06:42:15.411Z,100142.46
2022-12-15T06:44:47.661Z,100146.98
2022-12-15T06:47:22.342Z,100157.12
2022-12-15T06:49:55.502Z,100173.47
2022-12-15T06:52:27.663Z,100181.98
2022-12-15T06:54:59.843Z,100186.49
2022-12-15T06:57:32.038Z,100191.29
2022-12-15T07:00:04.972Z,100196.19
2022-12-15T07:02:37.363Z,100203.92
2022-12-15T07:05:10.531Z,100204.98
2022-12-15T07:07:42.709Z,100209.69
2022-12-15T07:10:15.151Z,100219.52
2022-12-15T07:12:47.283Z,100222.36
2022-12-15T07:15:19.856Z,100225.83
2022-12-15T07:17:52.469Z,100223.91
2022-12-15T07:20:28.768Z,100227.59
2022-12-15T07:23:03.911Z,100231.83
2022-12-15T07:25:36.791Z,100236.52
2022-12-15T07:28:09.803Z,100228.55
2022-12-15T07:30:42.035Z,100218.96
2022-12-15T07:33:15.100Z,100211.30
2022-12-15T07:35:56.150Z,100219.38
2022-12-15T07:38:29.679Z,100223.45
2022-12-15T07:41:05.651Z,100228.56
2022-12-15T07:43:38.600Z,100226.75
2022-12-15T07:46:11.302Z,100226.50
2022-12-15T07:48:43.512Z,100227.02
2022-12-15T07:51:19.711Z,100233.10
2022-12-15T07:53:52.920Z,100244.94
2022-12-15T07:56:25.139Z,100252.11
2022-12-15T07:58:57.271Z,100254.95
2022-12-15T08:01:29.562Z,100253.66
2022-12-15T08:04:02.255Z,100255.45
2022-12-15T08:06:34.537Z,100255.29
2022-12-15T08:09:06.724Z,100265.77
2022-12-15T08:11:39.019Z,100273.85
2022-12-15T08:14:16.889Z,100280.28
2022-12-15T08:16:50.144Z,100285.91
2022-12-15T08:19:22.586Z,100293.04
2022-12-15T08:21:54.796Z,100297.11
2022-12-15T08:24:27.259Z,100305.16
2022-12-15T08:27:00.016Z,100306.76
2022-12-15T08:29:50.722Z,100304.05
2022-12-15T08:32:24.651Z,100307.02
2022-12-15T08:34:56.952Z,100307.20
2022-12-15T08:37:29.158Z,100311.87
2022-12-15T08:40:01.283Z,100310.95
2022-12-15T08:42:37.681Z,100308.39
2022-12-15T08:45:12.549Z,100305.64
2022-12-15T08:47:44.704Z,100306.70
2022-12-15T08:50:17.060Z,100311.77
2022-12-15T08:53:13.842Z,100315.38
2022-12-15T08:55:41.827Z,100315.23
2022-12-15T08:58:14.009Z,100310.15
2022-12-15T09:00:46.679Z,100315.14
2022-12-15T09:03:18.833Z,100313.86
2022-12-15T09:05:51.023Z,100307.63
2022-12-15T09:08:23.156Z,100308.23
2022-12-15T09:10:55.307Z,100314.58
2022-12-15T09:13:28.003Z,100313.03
2022-12-15T09:16:10.758Z,100318.39
2022-12-15T09:18:45.522Z,100313.77
2022-12-15T09:21:19.170Z,100311.58
2022-12-15T09:23:52.861Z,100312.07
2022-12-15T09:26:26.170Z,100313.09
2022-12-15T09:28:59.008Z,100312.70
2022-12-15T09:31:33.034Z,100309.30
2022-12-15T09:34:05.426Z,100310.52
2022-12-15T09:36:37.586Z,100308.04
2022-12-15T09:39:12.024Z,100308.61
2022-12-15T09:41:59.756Z,100315.98
2022-12-15T09:44:33.916Z,100316.11
2022-12-15T09:47:16.180Z,100312.98
2022-12-15T09:49:55.573Z,100307.42
2022-12-15T09:52:30.247Z,100306.79
2022-12-15T09:55:04.250Z,100308.59
2022-12-15T09:57:42.132Z,100308.85
2022-12-15T10:00:22.330Z,100306.18
2022-12-15T10:03:36.508Z,100306.17
2022-12-15T10:06:17.772Z,100307.17
2022-12-15T10:08:56.075Z,100305.84
2022-12-15T10:11:50.182Z,100307.21
2022-12-15T10:14:33.526Z,100309.98
2022-12-15T10:17:17.229Z,100310.10
2022-12-15T10:19:55.311Z,100305.79
2022-12-15T10:22:32.062Z,100306.16
2022-12-15T10:25:14.991Z,100301.84
2022-12-15T10:28:08.216Z,100306.40
2022-12-15T10:30:51.408Z,100318.96
2022-12-15T10:33:28.422Z,100316.04
2022-12-15T10:36:01.016Z,100319.71
2022-12-15T10:38:38.565Z,100324.77
2022-12-15T10:41:12.931Z,100329.34
2022-12-15T10:43:47.602Z,100328.45
2022-12-15T10:46:24.307Z,100328.72
2022-12-15T10:49:00.432Z,100325.02
2022-12-15T10:51:34.429Z,100331.98
2022-12-15T10:54:13.313Z,100328.93
2022-12-15T10:56:52.765Z,100321.98
2022-12-15T10:59:31.203Z,100320.77
2022-12-15T11:02:27.308Z,100317.53
2022-12-15T11:05:01.280Z,100321.83
2022-12-15T11:07:39.905Z,100327.77
2022-12-15T11:10:50.044Z,100322.24
2022-12-15T11:13:27.310Z,100328.31
2022-12-15T11:16:16.280Z,100325.97
2022-12-15T11:18:49.747Z,100327.75
2022-12-15T11:21:25.632Z,100332.45
2022-12-15T11:24:05.929Z,100333.63
2022-12-15T11:26:50.329Z,100336.74
2022-12-15T11:29:34.584Z,100337.41
2022-12-15T11:32:07.701Z,100333.78
2022-12-15T11:34:43.386Z,100329.67
2022-12-15T11:37:36.421Z,100332.52
2022-12-15T11:40:30.982Z,100331.39
2022-12-15T11:43:28.411Z,100334.30
2022-12-15T11:46:17.515Z,100332.48
2022-12-15T11:49:16.243Z,100335.95
2022-12-15T11:51:54.992Z,100345.34
2022-12-15T11:54:36.051Z,100343.56
2022-12-15T11:57:27.705Z,100346.35
2022-12-15T12:00:07.124Z,100348.31
2022-12-15T12:03:05.538Z,100352.15
2022-12-15T12:05:51.915Z,100353.36
2022-12-15T12:08:39.513Z,100342.52
2022-12-15T12:11:16.882Z,100349.07
2022-12-15T12:14:11.941Z,100358.81
2022-12-15T12:16:51.360Z,100365.14
2022-12-15T12:19:32.237Z,100370.09
2022-12-15T12:22:08.686Z,100376.39
2022-12-15T12:24:48.972Z,100379.52
2022-12-15T12:27:31.906Z,100370.95
2022-12-15T12:30:10.067Z,100382.66
2022-12-15T12:32:50.497Z,100387.91
2022-12-15T12:35:32.885Z,100399.73
2022-12-15T12:38:08.139Z,100402.86
2022-12-15T12:40:54.587Z,100404.75
2022-12-15T12:43:28.932Z,100394.46
2022-12-15T12:46:06.875Z,100406.56
2022-12-15T12:48:44.922Z,100412.60
2022-12-15T12:51:28.404Z,100416.88
2022-12-15T12:54:02.185Z,100422.45
2022-12-15T12:56:45.590Z,100424.29
2022-12-15T12:59:44.979Z,100429.01
2022-12-15T13:02:55.160Z,100430.35
2022-12-15T13:05:33.771Z,100435.34
2022-12-15T13:12:14.959Z,100446.79
2022-12-15T13:14:57.321Z,100444.23
2022-12-15T13:17:39.477Z,100448.86
2022-12-15T13:20:29.499Z,100454.23
2022-12-15T13:23:31.675Z,100447.06
2022-12-15T13:26:16.281Z,100451.44
2022-12-15T13:28:53.165Z,100454.92
2022-12-15T13:31:34.458Z,100457.11
2022-12-15T13:34:23.202Z,100457.63
2022-12-15T13:37:03.167Z,100464.71
2022-12-15T13:39:49.968Z,100458.22
2022-12-15T13:42:48.233Z,100481.81
2022-12-15T13:45:44.171Z,100491.87
2022-12-15T13:48:25.773Z,100491.72
2022-12-15T13:51:06.043Z,100499.43
2022-12-15T13:53:44.690Z,100504.66
2022-12-15T13:56:42.942Z,100509.25
2022-12-15T13:59:26.714Z,100499.05
2022-12-15T14:01:58.916Z,100498.72
2022-12-15T14:04:31.352Z,100507.98
2022-12-15T14:07:04.498Z,100515.80
2022-12-15T14:09:40.616Z,100522.80
2022-12-15T14:12:16.685Z,100511.77
2022-12-15T14:14:52.541Z,100512.88
2022-12-15T14:17:25.034Z,100520.13
2022-12-15T14:19:57.404Z,100520.09
2022-12-15T14:22:31.113Z,100524.83
2022-12-15T14:25:05.428Z,100518.54
2022-12-15T14:27:37.575Z,100528.73
2022-12-15T14:30:29.378Z,100535.11
2022-12-15T14:33:07.111Z,100536.87
2022-12-15T14:35:42.828Z,100546.57
2022-12-15T14:38:19.359Z,100554.17
2022-12-15T14:40:53.293Z,100559.64
2022-12-15T14:43:28.844Z,100571.30
2022-12-15T14:46:07.865Z,100571.67
2022-12-15T14:48:45.368Z,100573.92
2022-12-15T14:51:17.726Z,100574.15
2022-12-15T14:53:53.458Z,100591.05
2022-12-15T14:56:30.515Z,100606.89
2022-12-15T14:59:05.973Z,100611.84
2022-12-15T15:01:42.195Z,100619.04
2022-12-15T15:03:11.154Z,100441.14
2022-12-15T15:04:29.307Z,100622.61
2022-12-15T15:07:04.326Z,100614.70
2022-12-15T15:09:42.202Z,100604.94
2022-12-15T15:12:18.494Z,100600.46
2022-12-15T15:14:54.802Z,100598.85
2022-12-15T15:17:32.493Z,100591.87
2022-12-15T15:20:08.416Z,100588.88
2022-12-15T15:22:43.611Z,100575.89
2022-12-15T15:25:41.132Z,100572.97
2022-12-15T15:28:24.994Z,100587.52
2022-12-15T15:31:00.612Z,100601.94
2022-12-15T15:33:33.236Z,100603.02
2022-12-15T15:36:11.411Z,100606.96
2022-12-15T15:38:46.765Z,100610.31
2022-12-15T15:41:21.140Z,100613.74
2022-12-15T15:43:53.411Z,100613.17
2022-12-15T15:46:29.574Z,100613.09
2022-12-15T15:49:04.883Z,100613.38
2022-12-15T15:51:37.872Z,100609.86
2022-12-15T15:54:14.326Z,100613.91
2022-12-15T15:56:46.608Z,100613.97
2022-12-15T15:59:21.163Z,100616.77
2022-12-15T16:01:57.706Z,100628.79
2022-12-15T16:04:30.008Z,100648.86
2022-12-15T16:07:02.182Z,100657.48
2022-12-15T16:09:36.011Z,100655.50
2022-12-15T16:12:11.606Z,100655.48
2022-12-15T16:14:43.790Z,100653.67
2022-12-15T16:17:17.346Z,100662.23
2022-12-15T16:19:49.590Z,100670.69
2022-12-15T16:22:23.623Z,100681.98
2022-12-15T16:24:56.578Z,100687.66
2022-12-15T16:27:28.811Z,100692.05
2022-12-15T16:30:01.052Z,100698.40
2022-12-15T16:32:33.256Z,100700.37
2022-12-15T16:35:07.140Z,100702.58
2022-12-15T16:37:42.114Z,100703.44
2022-12-15T16:40:20.535Z,100701.36
2022-12-15T16:42:58.289Z,100705.48
2022-12-15T16:45:32.239Z,100717.23
2022-12-15T16:48:04.612Z,100717.32
2022-12-15T16:50:40.319Z,100720.81
2022-12-15T16:53:18.324Z,100727.47
2022-12-15T16:55:53.776Z,100723.38
2022-12-15T16:58:27.353Z,100723.57
2022-12-15T17:00:59.578Z,100716.63
2022-12-15T17:03:31.990Z,100714.77
2022-12-15T17:06:08.991Z,100718.27
2022-12-15T17:08:44.907Z,100724.56
2022-12-15T17:11:20.507Z,100726.90
2022-12-15T17:13:55.035Z,100727.17
2022-12-15T17:16:29.683Z,100724.60
2022-12-15T17:19:01.931Z,100726.59
2022-12-15T17:21:36.953Z,100730.39
2022-12-15T17:24:15.041Z,100737.54
2022-12-15T17:26:47.667Z,100741.14
2022-12-15T17:29:23.087Z,100739.09
2022-12-15T17:31:55.636Z,100740.23
2022-12-15T17:34:31.331Z,100737.28
2022-12-15T17:37:06.171Z,100740.58
2022-12-15T17:39:38.768Z,100736.48
2022-12-15T17:42:18.223Z,100733.58
2022-12-15T17:44:51.635Z,100739.08
2022-12-15T17:47:25.519Z,100745.91
2022-12-15T17:49:57.767Z,100745.55
2022-12-15T17:52:34.560Z,100739.67
2022-12-15T17:55:19.617Z,100738.19
2022-12-15T17:57:53.725Z,100752.86
2022-12-15T18:00:29.194Z,100747.89
2022-12-15T18:03:02.695Z,100748.64
2022-12-15T18:05:35.383Z,100745.56
2022-12-15T18:08:15.326Z,100747.28
2022-12-15T18:10:50.537Z,100750.09
2022-12-15T18:13:26.057Z,100761.74
2022-12-15T18:15:59.295Z,100767.92
2022-12-15T18:18:31.625Z,100767.80
2022-12-15T18:21:13.099Z,100778.08
2022-12-15T18:23:47.659Z,100779.70
2022-12-15T18:26:19.831Z,100777.73
2022-12-15T18:28:51.991Z,100783.62
2022-12-15T18:31:27.068Z,100786.00
2022-12-15T18:34:04.295Z,100785.13
2022-12-15T18:36:37.320Z,100788.70
2022-12-15T18:39:19.696Z,100784.23
2022-12-15T18:41:54.769Z,100776.51
2022-12-15T18:44:28.984Z,100781.73
2022-12-15T18:47:01.226Z,100778.66
2022-12-15T18:49:33.391Z,100775.13
2022-12-15T18:52:05.669Z,100778.67
2022-12-15T18:54:38.763Z,100777.61
2022-12-15T18:57:31.261Z,100776.60
2022-12-15T19:00:09.242Z,100776.67
2022-12-15T19:02:41.969Z,100776.83
2022-12-15T19:05:27.863Z,100780.11
2022-12-15T19:08:04.565Z,100784.10
2022-12-15T19:10:38.725Z,100782.78
2022-12-15T19:13:16.730Z,100786.29
2022-12-15T19:15:49.199Z,100793.14
2022-12-15T19:18:40.657Z,100797.86
2022-12-15T19:21:36.751Z,100796.45
2022-12-15T19:24:11.538Z,100799.19
2022-12-15T19:26:44.123Z,100796.64
2022-12-15T19:29:21.282Z,100799.09
2022-12-15T19:31:54.891Z,100799.52
2022-12-15T19:34:27.226Z,100793.09
2022-12-15T19:36:59.889Z,100792.15
2022-12-15T19:39:35.267Z,100802.71
2022-12-15T19:42:15.270Z,100802.80
2022-12-15T19:44:47.414Z,100799.30
2022-12-15T19:47:19.870Z,100790.20
2022-12-15T19:49:52.958Z,100791.98
2022-12-15T19:52:28.370Z,100792.87
2022-12-15T19:55:00.782Z,100794.38
2022-12-15T19:57:33.664Z,100798.48
2022-12-15T20:00:12.039Z,100808.20
2022-12-15T20:02:44.737Z,100818.99
2022-12-15T20:05:17.098Z,100820.08
2022-12-15T20:07:50.071Z,100823.93
2022-12-15T20:10:31.321Z,100824.21
2022-12-15T20:13:04.451Z,100834.04
2022-12-15T20:15:36.594Z,100834.76
2022-12-15T20:18:09.436Z,100831.55
2022-12-15T20:20:43.550Z,100836.83
2022-12-15T20:23:19.409Z,100837.54
2022-12-15T20:25:51.607Z,100839.10
2022-12-15T20:28:26.597Z,100842.15
2022-12-15T20:31:00.119Z,100847.12
2022-12-15T20:33:32.658Z,100861.86
2022-12-15T20:36:05.330Z,100849.92
2022-12-15T20:38:37.511Z,100848.87
2022-12-15T20:41:16.058Z,100847.35
2022-12-15T20:43:48.967Z,100848.46
2022-12-15T20:46:24.197Z,100841.02
2022-12-15T20:48:57.727Z,100837.39
2022-12-15T20:51:31.733Z,100838.03
2022-12-15T20:54:14.578Z,100848.36
2022-12-15T20:56:47.896Z,100855.98
2022-12-15T20:59:20.310Z,100863.70
2022-12-15T21:01:52.673Z,100859.63
2022-12-15T21:04:29.599Z,100851.19
2022-12-15T21:07:01.775Z,100844.14
2022-12-15T21:09:33.939Z,100841.33
2022-12-15T21:12:09.684Z,100848.73
2022-12-15T21:14:41.826Z,100856.08
2022-12-15T21:17:17.488Z,100859.50
2022-12-15T21:19:50.421Z,100850.13
2022-12-15T21:22:26.498Z,100847.91
2022-12-15T21:25:00.671Z,100851.48
2022-12-15T21:27:32.937Z,100852.48
2022-12-15T21:30:07.307Z,100845.40
2022-12-15T21:32:39.945Z,100841.50
2022-12-15T21:35:17.360Z,100846.23
2022-12-15T21:37:51.749Z,100849.71
2022-12-15T21:40:28.832Z,100845.96
2022-12-15T21:43:04.338Z,100849.35
2022-12-15T21:45:36.470Z,100846.33
2022-12-15T21:48:26.996Z,100840.39
2022-12-15T21:50:59.140Z,100841.44
2022-12-15T21:53:31.388Z,100839.93
2022-12-15T21:56:03.556Z,100833.67
2022-12-15T21:58:35.861Z,100836.02
2022-12-15T22:01:10.289Z,100836.84
2022-12-15T22:03:42.894Z,100842.02
2022-12-15T22:06:20.185Z,100836.72
2022-12-15T22:08:55.406Z,100830.30
2022-12-15T22:11:28.862Z,100814.73
2022-12-15T22:14:03.422Z,100828.77
2022-12-15T22:16:35.906Z,100824.11
2022-12-15T22:19:14.637Z,100823.00
2022-12-15T22:21:46.798Z,100820.00
2022-12-15T22:24:19.126Z,100814.52
2022-12-15T22:26:51.666Z,100813.56
2022-12-15T22:29:25.447Z,100809.84
2022-12-15T22:31:58.260Z,100804.49
2022-12-15T22:34:34.724Z,100809.05
2022-12-15T22:37:06.967Z,100809.56
2022-12-15T22:39:39.107Z,100812.62
2022-12-15T22:42:16.247Z,100814.25
2022-12-15T22:44:48.630Z,100810.10
2022-12-15T22:47:20.875Z,100802.36
2022-12-15T22:49:53.050Z,100794.74
2022-12-15T22:52:26.879Z,100783.88
2022-12-15T22:54:59.200Z,100780.91
2022-12-15T22:57:31.618Z,100784.94
2022-12-15T23:00:07.476Z,100789.45
2022-12-15T23:02:44.399Z,100785.02
2022-12-15T23:05:20.080Z,100785.77
2022-12-15T23:07:52.643Z,100787.13
2022-12-15T23:10:44.801Z,100791.16
2022-12-15T23:13:16.939Z,100786.05
2022-12-15T23:16:06.512Z,100786.31
2022-12-15T23:18:39.010Z,100795.27
2022-12-15T23:21:11.496Z,100804.21
2022-12-15T23:23:44.054Z,100798.08
2022-12-15T23:26:17.556Z,100792.64
2022-12-15T23:28:49.770Z,100790.22
2022-12-15T23:31:23.764Z,100798.96
2022-12-15T23:33:55.996Z,100814.86
2022-12-15T23:36:28.170Z,100821.14
2022-12-15T23:39:01.261Z,100823.48
2022-12-15T23:41:33.397Z,100819.70
2022-12-15T23:44:05.914Z,100815.67
2022-12-15T23:46:38.073Z,100808.52
2022-12-15T23:49:10.287Z,100804.58
2022-12-15T23:51:42.539Z,100797.02
2022-12-15T23:54:14.740Z,100791.23
2022-12-15T23:56:46.955Z,100791.52
2022-12-15T23:59:19.086Z,100793.81
